»·PEaware :: N172RB KSBP-KSMX

N172RB :: KSBP-KSMX

FLIGHT INFORMATION

Flight Status: Arrived
Operator: Privately registered:
United States
More flights under this callsign
Pilot: Newton D. (19172)
Aircraft: CESSNA 172 SKYHAWK
(C172)
More flights by this aircraft type
Origin: KSBP San Luis Co Regl
United States
Destination: KSMX Santa Maria Pub/Capt Hancock
United States
More flights between these airports :: More routes between these airports
Route: DCT
File this flight plan on PilotEdge
Remarks:
Altitude:
(Current/Filed)
3,500ft
Speed:
(Current/Filed)
110kts
Departed: 15-May-18 03:10 PM
Arrived: 15-May-18 03:44 PM
Distance/Time
Traveled:
0nm/0:34
Distance/Time
To Go:
Arrived

Flight Plot

Page will automatically refresh every two minutes.


Map Options




Map Legend


Flown Route
Filed Route
Departure Airport
Arrival Airport
Navaid (VOR, NDB)
Fix

Horizontal Profiles

Position Reports

Time Latitude Longitude Heading Altitude Ground
Speed
15-May-18 14:59 35.241373 -120.644952 150 171ft 0kts
15-May-18 15:00 35.241373 -120.644952 150 171ft 0kts
15-May-18 15:01 35.241373 -120.644952 150 171ft 0kts
15-May-18 15:02 35.241373 -120.644952 150 171ft 0kts
15-May-18 15:03 35.241373 -120.644952 150 171ft 0kts
15-May-18 15:04 35.241369 -120.644950 151 171ft 0kts
15-May-18 15:05 35.239655 -120.643194 123 179ft 11kts
15-May-18 15:06 35.237558 -120.639407 129 193ft 14kts
15-May-18 15:07 35.235226 -120.635403 125 209ft 14kts
15-May-18 15:08 35.233175 -120.632430 239 212ft 0kts
15-May-18 15:09 35.233175 -120.632430 239 212ft 0kts
15-May-18 15:10 35.233492 -120.634382 307 209ft 47kts
15-May-18 15:11 35.246428 -120.656540 302 868ft 83kts
15-May-18 15:12 35.232664 -120.672111 156 1595ft 93kts
15-May-18 15:13 35.208333 -120.659241 157 2236ft 98kts
15-May-18 15:14 35.184217 -120.644254 156 2863ft 99kts
15-May-18 15:15 35.159399 -120.625808 149 3389ft 102kts
15-May-18 15:16 35.132297 -120.609303 157 3569ft 118kts
15-May-18 15:17 35.101794 -120.594793 156 3452ft 118kts
15-May-18 15:18 35.074303 -120.575594 146 3496ft 112kts
15-May-18 15:19 35.047517 -120.559311 157 3574ft 109kts
15-May-18 15:20 35.020767 -120.544337 153 3785ft 93kts
15-May-18 15:21 34.999283 -120.522523 152 3451ft 99kts
15-May-18 15:22 34.979263 -120.512670 161 2830ft 99kts
15-May-18 15:23 34.968045 -120.507608 152 2595ft 89kts
15-May-18 15:24 34.951101 -120.497270 148 2148ft 90kts
15-May-18 15:25 34.930046 -120.478125 136 1452ft 95kts
15-May-18 15:26 34.910883 -120.457258 133 1103ft 92kts
15-May-18 15:27 34.894724 -120.433398 124 1236ft 93kts
15-May-18 15:28 34.874496 -120.433425 238 1420ft 99kts
15-May-18 15:29 34.886314 -120.459135 318 1547ft 98kts
15-May-18 15:30 34.906141 -120.484057 312 1481ft 96kts
15-May-18 15:31 34.926258 -120.506915 347 1290ft 104kts
15-May-18 15:32 34.945054 -120.495785 45 1244ft 99kts
15-May-18 15:33 34.961669 -120.482549 30 1158ft 100kts
15-May-18 15:34 34.985885 -120.473079 65 1174ft 89kts
15-May-18 15:35 34.967854 -120.458466 210 1250ft 95kts
15-May-18 15:36 34.948798 -120.470921 157 1313ft 107kts
15-May-18 15:37 34.946885 -120.470027 158 1333ft 106kts
15-May-18 15:38 34.934103 -120.464689 164 1363ft 108kts
15-May-18 15:39 34.912754 -120.451057 133 1355ft 109kts
15-May-18 15:40 34.893212 -120.423960 129 1400ft 103kts
15-May-18 15:41 34.873645 -120.402725 189 1466ft 90kts
15-May-18 15:42 34.872503 -120.425651 331 1091ft 97kts
15-May-18 15:43 34.892262 -120.445301 314 311ft 79kts
15-May-18 15:44 34.900418 -120.453280 6 265ft 0kts
15-May-18 15:45 34.900418 -120.453280 6 265ft 0kts
15-May-18 15:46 34.900418 -120.453280 6 265ft 0kts
15-May-18 15:47 34.902440 -120.452837 279 265ft 0kts
15-May-18 15:48 34.902440 -120.452836 278 265ft 0kts
15-May-18 15:49 34.902440 -120.452836 278 265ft 0kts
15-May-18 15:50 35.237915 -120.638650 270 196ft 0kts
15-May-18 15:51 35.237915 -120.638650 270 196ft 0kts
15-May-18 15:52 35.237915 -120.638650 270 196ft 0kts
15-May-18 15:53 35.237915 -120.638650 270 196ft 0kts
15-May-18 15:54 35.237915 -120.638650 270 196ft 0kts
15-May-18 15:55 35.237915 -120.638650 270 196ft 0kts
15-May-18 15:56 35.237915 -120.638650 270 196ft 0kts
15-May-18 15:57 35.237915 -120.638650 270 196ft 0kts
15-May-18 15:58 35.237599 -120.639514 119 193ft 5kts

Navigation Log

Ident Type
1. KSBP Airport
2. KSMX Airport